Flight report

Adam Łagoda
(LOT117)
EPWA - EPSC
(LOT3938)
AT7
(SP-LLA)
2018-05-28
Flight time:
00h01m
Distance:
1 Nm
Pax:
22
Touchdown:
ft/min
Fuel used:
0 kg

Komentarz od sprawdzającego PIREP:

 
Traktujemy jako testowy
 

[2018/05/28 19:27:00]
Flight IATA:LO3938
Pilot Number:117
Company ICAO:LOT
Aircraft Type:AT7
PAX:22
Aircraft Registration:SP-LLA
Departing Airport: EPWA
Destination Airport: EPSC
Alternate Airport:EPWA
Online: VATSIM
Route:DCT
Flight Level:F310
No Slew and time accel
No pause
Detect pilot in Cockpit between each 0 and 0 minutes
19:27 Zero fuel Weight: 905 Kg, Fuel Weight: 141 Kg
19:27 VATSIM:EPWA 281900Z 09007KT CAVOK 24/11 Q1023 NOSIG
19:27 VATSIM:EPSC 281900Z 08006KT CAVOK 25/14 Q1020
19:27 Parking Brakes off
19:27 V2= 078 Knots
19:27 Take-off
19:27 Take off Weight: 1046 Kg
19:27 Wind: 000º @ 000 Knots Heading: 131º
19:27 POS N53º 35´ 10´´ E014º 54´ 09´´
19:27 N11 87 N12 00
19:27 Flaps:2 at 79 Knots
19:27 Flaps:3 at 75 Knots
19:28 VATSIM:EPSC 281900Z 08006KT CAVOK 25/14 Q1020
19:28 Land
19:28 Wind:000º@000 Knots
19:28 Heading: 119º
19:28 Flight Duration: 00:01
19:28 Landing Weight: 1046 Kg
19:28 POS N53º 34´ 37´´ E014º 55´ 18´´
19:28 Parking brakes on
19:28 Block to Block Duration: 00:01
19:28 Final Fuel: 141 Kg
19:28 Spent Fuel: 00 Kg
19:28 Flight Length: 01 NM
19:28 TOD Land Length: 01 NM
[2018/05/28 19:27:00]
Flight IATA:LO3938
Pilot Number:117
Company ICAO:LOT
Aircraft Type:AT7
PAX:22
Aircraft Registration:SP-LLA
Departing Airport: EPWA
Destination Airport: EPSC
Alternate Airport:EPWA
Online: VATSIM
Route:DCT
Flight Level:F310
No Slew and time accel
No pause
Detect pilot in Cockpit between each 0 and 0 minutes
[2018/05/28 19:27:00]
Flight IATA:LO3938
Pilot Number:117
Company ICAO:LOT
Aircraft Type:AT7
PAX:22
Aircraft Registration:SP-LLA
Departing Airport: EPWA
Destination Airport: EPSC
Alternate Airport:EPWA
Online: VATSIM
Route:DCT
Flight Level:F310
No Slew and time accel
No pause
Detect pilot in Cockpit between each 0 and 0 minutes
19:27 Zero fuel Weight: 905 Kg, Fuel Weight: 141 Kg
19:27 VATSIM:EPWA 281900Z 09007KT CAVOK 24/11 Q1023 NOSIG
19:27 VATSIM:EPSC 281900Z 08006KT CAVOK 25/14 Q1020
19:27 Parking Brakes off
19:27 V2= 078 Knots
19:27 Take-off
19:27 Take off Weight: 1046 Kg
19:27 Wind: 000º @ 000 Knots Heading: 131º
19:27 POS N53º 35´ 10´´ E014º 54´ 09´´
19:27 N11 87 N12 00
19:27 Flaps:2 at 79 Knots
19:27 Flaps:3 at 75 Knots
19:28 VATSIM:EPSC 281900Z 08006KT CAVOK 25/14 Q1020
19:28 Land
19:28 Wind:000º@000 Knots
19:28 Heading: 119º
19:28 Flight Duration: 00:01
19:28 Landing Weight: 1046 Kg
19:28 POS N53º 34´ 37´´ E014º 55´ 18´´
19:28 Parking brakes on
19:28 Block to Block Duration: 00:01
19:28 Final Fuel: 141 Kg
19:28 Spent Fuel: 00 Kg
19:28 Flight Length: 01 NM
19:28 TOD Land Length: 01 NM